Time;durP1;ratioP1;P1;durP2;ratioP2;P2;SDS_P1;SDS_P2;PMS_P1;PMS_P2;Temp;Humidity;BMP_temperature;BMP_pressure;BME280_temperature;BME280_humidity;BME280_pressure;Samples;Min_cycle;Max_cycle;Signal;HPM_P1;HPM_P2
2022/07/07 00:02:08;;;;;;;;;;;;;;;15.83;34.98;96058.00;5042569;28;19988;-70
2022/07/07 00:04:33;;;;;;;;;;;;;;;15.88;34.66;96060.09;5042029;28;20268;-69
2022/07/07 00:06:59;;;;;;;;;;;;;;;15.88;34.32;96049.34;5042133;28;19989;-69
2022/07/07 00:09:24;;;;;;;;;;;;;;;15.78;34.60;96052.41;5042724;28;19980;-70
2022/07/07 00:11:50;;;;;;;;;;;;;;;15.69;34.84;96043.69;5042611;28;20001;-70
2022/07/07 00:14:15;;;;;;;;;;;;;;;15.59;35.74;96045.91;5042645;28;20337;-69
2022/07/07 00:16:40;;;;;;;;;;;;;;;15.52;35.51;96042.34;5042608;28;20436;-70
2022/07/07 00:19:05;;;;;;;;;;;;;;;15.50;35.80;96031.81;5040364;28;20385;-70
2022/07/07 00:21:31;;;;;;;;;;;;;;;15.43;36.05;96026.41;5040536;28;20416;-70
2022/07/07 00:23:56;;;;;;;;;;;;;;;15.41;36.31;96027.63;5040073;28;19997;-70
2022/07/07 00:26:21;;;;;;;;;;;;;;;15.26;36.25;96025.91;5042171;28;19969;-70
2022/07/07 00:28:47;;;;;;;;;;;;;;;15.26;36.15;96017.88;5041422;28;20378;-69
2022/07/07 00:31:12;;;;;;;;;;;;;;;15.48;35.93;96018.63;5041560;28;20384;-69
2022/07/07 00:33:37;;;;;;;;;;;;;;;15.26;36.16;96015.19;5040621;28;20123;-70
2022/07/07 00:36:03;;;;;;;;;;;;;;;15.37;35.63;96019.19;5041073;28;19992;-70
2022/07/07 00:38:29;;;;;;;;;;;;;;;15.45;35.46;96013.63;5040016;28;20055;-69
2022/07/07 00:40:54;;;;;;;;;;;;;;;15.35;35.71;96013.16;5042188;28;20020;-70
2022/07/07 00:43:20;;;;;;;;;;;;;;;15.33;35.63;96008.00;5038041;28;20075;-69
2022/07/07 00:45:48;;;;;;;;;;;;;;;15.35;35.79;96005.13;5039757;28;19985;-69
2022/07/07 00:48:14;;;;;;;;;;;;;;;15.29;36.06;96004.06;5039910;28;19991;-69
2022/07/07 00:50:39;;;;;;;;;;;;;;;15.19;36.26;96004.44;5042279;28;19985;-69
2022/07/07 00:53:04;;;;;;;;;;;;;;;15.22;36.25;95998.66;5040938;28;19980;-69
2022/07/07 00:55:29;;;;;;;;;;;;;;;15.14;36.69;95996.16;5042075;28;19989;-69
2022/07/07 00:57:55;;;;;;;;;;;;;;;15.07;36.79;95990.75;5039617;28;19988;-69
2022/07/07 01:00:20;;;;;;;;;;;;;;;14.93;37.06;95989.03;5041802;28;20086;-70
2022/07/07 01:02:45;;;;;;;;;;;;;;;15.03;36.84;95985.97;5041720;28;20058;-69
2022/07/07 01:05:10;;;;;;;;;;;;;;;14.93;37.05;95984.47;5042145;28;19973;-70
2022/07/07 01:07:36;;;;;;;;;;;;;;;14.75;37.40;95986.84;5040311;28;19989;-69
2022/07/07 01:10:01;;;;;;;;;;;;;;;14.88;37.13;95992.28;5042175;28;20091;-69
2022/07/07 01:12:32;;;;;;;;;;;;;;;14.84;37.32;95985.66;5041828;28;20316;-69
2022/07/07 01:14:57;;;;;;;;;;;;;;;14.78;37.43;95981.06;5044250;28;20047;-69
2022/07/07 01:17:22;;;;;;;;;;;;;;;;;;5046152;28;19973;-70
2022/07/07 01:19:47;;;;;;;;;;;;;;;14.89;37.22;95983.22;5045747;28;20041;-70
2022/07/07 01:22:13;;;;;;;;;;;;;;;14.92;37.55;95979.34;5045740;28;20147;-70
2022/07/07 01:24:38;;;;;;;;;;;;;;;14.90;37.31;95976.84;5045793;28;20008;-69
2022/07/07 01:27:09;;;;;;;;;;;;;;;14.78;37.78;95965.00;5042871;28;20015;-69
2022/07/07 01:29:38;;;;;;;;;;;;;;;14.84;37.82;95967.75;5045193;28;19980;-70
2022/07/07 01:32:04;;;;;;;;;;;;;;;14.91;37.63;95970.44;5045428;28;20079;-69
2022/07/07 01:34:29;;;;;;;;;;;;;;;14.88;37.64;95970.84;5045644;28;19977;-69
2022/07/07 01:36:55;;;;;;;;;;;;;;;14.94;37.67;95967.38;5045663;28;20460;-70
2022/07/07 01:39:20;;;;;;;;;;;;;;;14.81;38.05;95962.75;5045368;28;20353;-69
2022/07/07 01:41:45;;;;;;;;;;;;;;;14.90;37.85;95966.13;5045450;28;20246;-69
2022/07/07 01:44:10;;;;;;;;;;;;;;;14.89;37.77;95964.44;5045344;28;20035;-69
2022/07/07 01:46:36;;;;;;;;;;;;;;;14.84;37.75;95964.22;5044983;28;20453;-69
2022/07/07 01:49:01;;;;;;;;;;;;;;;14.92;37.75;95953.34;5045383;28;20369;-70
2022/07/07 01:51:26;;;;;;;;;;;;;;;14.90;37.79;95957.25;5045285;28;20044;-69
2022/07/07 01:53:51;;;;;;;;;;;;;;;14.76;38.10;95951.81;5045680;28;20042;-69
2022/07/07 01:56:16;;;;;;;;;;;;;;;14.79;38.16;95950.59;5045182;28;20461;-69
2022/07/07 01:58:42;;;;;;;;;;;;;;;14.49;38.72;95948.91;5045240;28;20507;-69
2022/07/07 02:01:07;;;;;;;;;;;;;;;14.83;38.28;95951.84;5044993;28;20369;-69
2022/07/07 02:03:32;;;;;;;;;;;;;;;14.72;38.55;95945.13;5045034;28;20548;-69
2022/07/07 02:05:58;;;;;;;;;;;;;;;14.87;37.91;95947.75;5042712;28;20000;-70
2022/07/07 02:08:23;;;;;;;;;;;;;;;14.53;39.19;95942.16;5044465;28;20338;-69
2022/07/07 02:11:30;;;;;;;;;;;;;;;14.21;39.69;95947.88;5044600;28;19996;-69
2022/07/07 02:13:36;;;;;;;;;;;;;;;13.97;40.14;95949.09;5049743;28;20091;-70
2022/07/07 02:16:02;;;;;;;;;;;;;;;14.16;40.57;95954.81;5044254;28;20284;-69
2022/07/07 02:18:28;;;;;;;;;;;;;;;13.89;40.93;95949.22;5043619;28;19979;-69
2022/07/07 02:20:53;;;;;;;;;;;;;;;13.59;41.57;95944.78;5044463;28;19996;-69
2022/07/07 02:23:18;;;;;;;;;;;;;;;13.36;42.68;95945.75;5044349;28;19989;-69
2022/07/07 02:25:43;;;;;;;;;;;;;;;12.83;43.88;95943.22;5043078;28;19977;-69
2022/07/07 02:28:09;;;;;;;;;;;;;;;13.26;43.10;95931.88;5043881;28;20532;-69
2022/07/07 02:30:34;;;;;;;;;;;;;;;13.44;42.77;95934.94;5042564;28;19989;-69
2022/07/07 02:32:59;;;;;;;;;;;;;;;13.41;42.79;95932.66;5044015;28;20449;-69
2022/07/07 02:35:25;;;;;;;;;;;;;;;13.62;42.51;95925.69;5041942;28;20594;-69
2022/07/07 02:37:50;;;;;;;;;;;;;;;13.68;42.58;95922.25;5043182;28;20007;-69
2022/07/07 02:40:15;;;;;;;;;;;;;;;12.94;44.19;95924.03;5044623;28;20051;-69
2022/07/07 02:42:40;;;;;;;;;;;;;;;12.80;44.79;95925.72;5043788;28;19993;-69
2022/07/07 02:45:06;;;;;;;;;;;;;;;12.42;46.11;95929.28;5044708;28;19970;-69
2022/07/07 02:47:31;;;;;;;;;;;;;;;12.37;46.03;95927.16;5043707;28;20362;-69
2022/07/07 02:49:56;;;;;;;;;;;;;;;12.08;47.13;95934.09;5044419;28;19973;-69
2022/07/07 02:52:22;;;;;;;;;;;;;;;12.46;46.15;95921.72;5042770;28;20422;-69
2022/07/07 02:54:47;;;;;;;;;;;;;;;12.17;47.04;95921.50;5042889;28;20059;-69
2022/07/07 02:57:13;;;;;;;;;;;;;;;12.60;45.92;95923.59;5043625;28;19970;-69
2022/07/07 02:59:38;;;;;;;;;;;;;;;12.63;45.98;95919.72;5043417;28;20420;-69
2022/07/07 03:02:03;;;;;;;;;;;;;;;12.45;46.73;95920.91;5044014;28;19998;-70
2022/07/07 03:04:29;;;;;;;;;;;;;;;12.77;45.78;95918.06;5043210;28;20177;-69
2022/07/07 03:06:54;;;;;;;;;;;;;;;11.94;48.12;95930.34;5043204;28;19993;-69
2022/07/07 03:09:19;;;;;;;;;;;;;;;12.09;48.18;95934.91;5043781;28;19977;-69
2022/07/07 03:11:44;;;;;;;;;;;;;;;11.64;49.21;95928.41;5041858;28;20443;-69
2022/07/07 03:14:10;;;;;;;;;;;;;;;11.98;48.50;95923.63;5043576;28;20437;-69
2022/07/07 03:16:35;;;;;;;;;;;;;;;12.17;47.81;95918.00;5043347;28;19993;-69
2022/07/07 03:19:00;;;;;;;;;;;;;;;11.92;48.46;95921.69;5041795;28;19993;-68
2022/07/07 03:21:25;;;;;;;;;;;;;;;12.11;47.98;95914.22;5043513;28;20285;-69
2022/07/07 03:23:50;;;;;;;;;;;;;;;12.10;48.11;95916.06;5043037;28;19987;-69
2022/07/07 03:26:16;;;;;;;;;;;;;;;12.12;48.34;95910.53;5043085;28;19985;-69
2022/07/07 03:28:41;;;;;;;;;;;;;;;12.15;48.08;95913.69;5043921;28;19980;-69
2022/07/07 03:31:06;;;;;;;;;;;;;;;11.64;49.49;95917.72;5042448;28;20518;-69
2022/07/07 03:33:31;;;;;;;;;;;;;;;11.53;49.91;95918.13;5043586;28;20425;-69
2022/07/07 03:35:57;;;;;;;;;;;;;;;11.72;49.51;95907.97;5042379;28;20012;-69
2022/07/07 03:38:22;;;;;;;;;;;;;;;11.78;49.67;95907.28;5041056;28;19997;-69
2022/07/07 03:40:47;;;;;;;;;;;;;;;11.93;49.29;95906.50;5042674;28;20457;-69
2022/07/07 03:43:12;;;;;;;;;;;;;;;11.96;49.23;95908.78;5043145;28;19997;-69
2022/07/07 03:45:38;;;;;;;;;;;;;;;11.60;50.12;95899.59;5043182;28;19973;-69
2022/07/07 03:48:03;;;;;;;;;;;;;;;11.74;50.11;95904.16;5042738;28;19993;-69
2022/07/07 03:50:28;;;;;;;;;;;;;;;11.28;52.10;95891.63;5042948;28;19973;-69
2022/07/07 03:52:53;;;;;;;;;;;;;;;11.43;52.68;95893.53;5042915;28;19976;-69
2022/07/07 03:55:19;;;;;;;;;;;;;;;11.92;51.79;95894.16;5042911;28;19993;-69
2022/07/07 03:57:44;;;;;;;;;;;;;;;11.82;52.44;95889.06;5042866;28;20501;-69
2022/07/07 04:00:09;;;;;;;;;;;;;;;11.48;54.62;95886.66;5041912;28;20613;-74
2022/07/07 04:02:35;;;;;;;;;;;;;;;11.46;55.44;95887.84;5041926;28;20087;-69
2022/07/07 04:05:00;;;;;;;;;;;;;;;11.22;56.48;95884.34;5043128;28;20438;-69
2022/07/07 04:07:25;;;;;;;;;;;;;;;10.62;58.42;95885.53;5038322;28;20004;-69
2022/07/07 04:09:51;;;;;;;;;;;;;;;10.95;57.83;95873.13;5042871;28;19965;-69
2022/07/07 04:12:16;;;;;;;;;;;;;;;11.21;57.62;95880.84;5042439;28;20296;-69
2022/07/07 04:14:41;;;;;;;;;;;;;;;11.33;57.08;95881.28;5042231;28;19993;-68
2022/07/07 04:17:06;;;;;;;;;;;;;;;11.34;57.30;95884.75;5042440;28;19966;-69
2022/07/07 04:19:32;;;;;;;;;;;;;;;11.68;56.29;95888.00;5042415;28;19997;-68
2022/07/07 04:21:57;;;;;;;;;;;;;;;11.39;57.21;95887.72;5041883;28;20020;-69
2022/07/07 04:24:22;;;;;;;;;;;;;;;11.52;57.13;95884.47;5042451;28;20515;-69
2022/07/07 04:26:48;;;;;;;;;;;;;;;11.25;57.87;95875.97;5041928;28;20350;-69
2022/07/07 04:29:13;;;;;;;;;;;;;;;11.52;57.19;95876.47;5042063;28;19975;-68
2022/07/07 04:31:43;;;;;;;;;;;;;;;11.79;56.12;95868.94;5042343;28;19993;-69
2022/07/07 04:34:08;;;;;;;;;;;;;;;12.06;55.61;95865.84;5041732;28;19970;-68
2022/07/07 04:36:34;;;;;;;;;;;;;;;12.10;54.90;95859.19;5041023;28;19965;-69
2022/07/07 04:38:59;;;;;;;;;;;;;;;12.61;54.04;95858.47;5041613;28;20451;-69
2022/07/07 04:41:25;;;;;;;;;;;;;;;12.89;53.54;95849.78;5041372;28;19986;-69
2022/07/07 04:43:50;;;;;;;;;;;;;;;12.96;52.81;95849.88;5041709;28;20000;-68
2022/07/07 04:46:15;;;;;;;;;;;;;;;13.05;52.65;95839.91;5041629;28;20009;-69
2022/07/07 04:48:41;;;;;;;;;;;;;;;12.98;52.64;95839.81;5041944;28;19965;-69
2022/07/07 04:51:06;;;;;;;;;;;;;;;11.92;54.67;95848.81;5041344;28;20239;-68
2022/07/07 04:53:31;;;;;;;;;;;;;;;12.75;53.45;95834.63;5042461;28;20000;-69
2022/07/07 04:55:57;;;;;;;;;;;;;;;12.97;52.16;95838.16;5041429;28;20377;-68
2022/07/07 04:58:22;;;;;;;;;;;;;;;13.26;51.74;95838.31;5039654;28;19970;-71
2022/07/07 05:00:48;;;;;;;;;;;;;;;13.45;51.80;95844.84;5042048;28;19992;-68
2022/07/07 05:03:13;;;;;;;;;;;;;;;13.74;50.42;95837.72;5041404;28;20446;-68
2022/07/07 05:05:38;;;;;;;;;;;;;;;13.48;51.07;95846.31;5041320;28;19969;-69
2022/07/07 05:08:03;;;;;;;;;;;;;;;13.75;50.42;95843.88;5038915;28;20176;-68
2022/07/07 05:10:29;;;;;;;;;;;;;;;13.79;50.14;95837.97;5041176;28;20426;-69
2022/07/07 05:12:54;;;;;;;;;;;;;;;13.73;50.01;95837.91;5041209;28;20499;-69
2022/07/07 05:15:19;;;;;;;;;;;;;;;13.76;50.09;95840.19;5040948;28;19993;-68
2022/07/07 05:17:44;;;;;;;;;;;;;;;13.52;49.86;95839.56;5040855;28;19999;-68
2022/07/07 05:20:10;;;;;;;;;;;;;;;13.02;51.27;95842.97;5038251;28;20097;-68
2022/07/07 05:22:35;;;;;;;;;;;;;;;13.46;50.65;95851.03;5040264;28;20043;-69
2022/07/07 05:25:00;;;;;;;;;;;;;;;13.62;50.26;95839.25;5041633;28;20043;-68
2022/07/07 05:27:26;;;;;;;;;;;;;;;13.79;49.54;95840.63;5040835;28;20096;-69
2022/07/07 05:29:51;;;;;;;;;;;;;;;13.78;49.62;95840.84;5040040;28;19977;-68
2022/07/07 05:32:17;;;;;;;;;;;;;;;13.66;49.87;95851.22;5040659;28;19999;-68
2022/07/07 05:34:42;;;;;;;;;;;;;;;13.60;49.84;95842.09;5040748;28;20465;-69
2022/07/07 05:37:07;;;;;;;;;;;;;;;13.26;51.36;95847.13;5041655;28;20879;-69
2022/07/07 05:39:32;;;;;;;;;;;;;;;12.32;53.92;95851.28;5040562;28;20063;-69
2022/07/07 05:41:57;;;;;;;;;;;;;;;13.23;51.40;95841.34;5035995;28;20039;-69
2022/07/07 05:44:23;;;;;;;;;;;;;;;13.22;51.64;95847.72;5038705;28;19989;-68
2022/07/07 05:46:48;;;;;;;;;;;;;;;13.26;51.54;95844.47;5039644;28;19997;-69
2022/07/07 05:49:13;;;;;;;;;;;;;;;13.23;51.77;95847.53;5035194;28;19973;-69
2022/07/07 05:51:38;;;;;;;;;;;;;;;12.49;54.48;95842.09;5034124;28;19989;-68
2022/07/07 05:54:04;;;;;;;;;;;;;;;12.24;55.57;95847.69;5035573;28;20314;-68
2022/07/07 05:56:29;;;;;;;;;;;;;;;11.58;57.99;95851.75;5035761;28;20016;-68
2022/07/07 05:58:54;;;;;;;;;;;;;;;11.55;58.36;95845.94;5038593;28;20004;-67
2022/07/07 06:01:20;;;;;;;;;;;;;;;11.92;57.38;95843.47;5036061;28;20304;-68
2022/07/07 06:03:46;;;;;;;;;;;;;;;11.15;59.77;95843.41;5039025;28;20476;-68
2022/07/07 06:06:11;;;;;;;;;;;;;;;10.90;61.16;95848.81;5039543;28;20011;-68
2022/07/07 06:08:37;;;;;;;;;;;;;;;11.35;59.63;95841.94;5038052;28;20039;-68
2022/07/07 06:11:02;;;;;;;;;;;;;;;11.54;59.08;95836.28;5039469;28;20376;-68
2022/07/07 06:13:27;;;;;;;;;;;;;;;12.08;57.93;95830.03;5040715;28;19971;-68
2022/07/07 06:15:52;;;;;;;;;;;;;;;11.94;57.44;95828.13;5038444;28;20067;-68
2022/07/07 06:18:18;;;;;;;;;;;;;;;11.39;59.61;95827.25;5037093;28;20035;-68
2022/07/07 06:20:43;;;;;;;;;;;;;;;12.13;57.66;95829.44;5038164;28;20406;-68
2022/07/07 06:23:09;;;;;;;;;;;;;;;12.58;57.37;95832.13;5038799;28;20021;-68
2022/07/07 06:25:35;;;;;;;;;;;;;;;12.21;58.22;95825.88;5035278;28;20146;-68
2022/07/07 06:28:00;;;;;;;;;;;;;;;12.45;58.03;95830.13;5038898;28;20112;-68
2022/07/07 06:30:25;;;;;;;;;;;;;;;12.26;58.93;95829.66;5039113;28;20017;-68
2022/07/07 06:32:50;;;;;;;;;;;;;;;12.69;58.03;95827.34;5035814;28;19996;-68
2022/07/07 06:35:16;;;;;;;;;;;;;;;12.18;59.29;95828.91;5035493;28;20017;-69
2022/07/07 06:37:41;;;;;;;;;;;;;;;10.96;63.73;95835.66;5038657;28;19973;-68
2022/07/07 06:40:07;;;;;;;;;;;;;;;11.11;62.70;95834.91;5039363;28;20259;-68
2022/07/07 06:42:32;;;;;;;;;;;;;;;11.07;63.74;95841.56;5037414;28;20307;-68
2022/07/07 06:44:57;;;;;;;;;;;;;;;10.91;65.14;95846.00;5039625;28;19999;-68
2022/07/07 06:47:22;;;;;;;;;;;;;;;10.42;65.82;95837.22;5037170;28;20032;-68
2022/07/07 06:49:48;;;;;;;;;;;;;;;9.91;68.35;95840.13;5039536;28;20024;-68
2022/07/07 06:52:13;;;;;;;;;;;;;;;10.17;67.34;95849.75;5038543;28;19996;-68
2022/07/07 06:54:38;;;;;;;;;;;;;;;9.92;68.39;95836.47;5038268;28;20001;-68
2022/07/07 06:57:04;;;;;;;;;;;;;;;9.79;69.23;95824.50;5038313;28;20430;-68
2022/07/07 06:59:30;;;;;;;;;;;;;;;9.72;69.66;95831.50;5038614;28;20086;-68
2022/07/07 07:01:55;;;;;;;;;;;;;;;9.74;69.06;95834.84;5036346;28;20084;-68
2022/07/07 07:04:20;;;;;;;;;;;;;;;10.05;68.07;95841.25;5037951;28;19996;-69
2022/07/07 07:06:46;;;;;;;;;;;;;;;10.18;67.66;95846.09;5037737;28;19993;-68
2022/07/07 07:09:13;;;;;;;;;;;;;;;9.77;69.45;95837.16;5038677;28;19969;-68
2022/07/07 07:11:38;;;;;;;;;;;;;;;10.01;69.10;95847.91;5037087;28;20053;-68
2022/07/07 07:14:03;;;;;;;;;;;;;;;10.09;69.23;95831.97;5038598;28;19977;-69
2022/07/07 07:16:29;;;;;;;;;;;;;;;10.09;69.67;95837.28;5038093;28;19996;-68
2022/07/07 07:18:54;;;;;;;;;;;;;;;9.61;71.30;95834.50;5036939;28;20146;-68
2022/07/07 07:21:19;;;;;;;;;;;;;;;9.40;71.99;95828.69;5038325;28;20051;-68
2022/07/07 07:23:45;;;;;;;;;;;;;;;9.19;72.42;95831.81;5038246;28;20039;-67
2022/07/07 07:26:10;;;;;;;;;;;;;;;9.05;73.47;95831.44;5036633;28;19980;-68
2022/07/07 07:28:35;;;;;;;;;;;;;;;9.53;71.65;95835.34;5038496;28;19996;-68
2022/07/07 07:31:00;;;;;;;;;;;;;;;9.18;73.13;95851.41;5037483;28;20503;-67
2022/07/07 07:33:26;;;;;;;;;;;;;;;9.11;74.20;95842.44;5037801;28;20403;-67
2022/07/07 07:35:51;;;;;;;;;;;;;;;9.02;74.07;95841.59;5033781;28;20332;-68
2022/07/07 07:38:16;;;;;;;;;;;;;;;9.18;74.20;95838.13;5038017;28;20044;-68
2022/07/07 07:40:41;;;;;;;;;;;;;;;8.86;75.56;95845.81;5037839;28;19988;-68
2022/07/07 07:43:06;;;;;;;;;;;;;;;8.51;77.26;95861.81;5037944;28;20221;-68
2022/07/07 07:45:32;;;;;;;;;;;;;;;8.25;78.06;95853.84;5037755;28;19969;-68
2022/07/07 07:47:57;;;;;;;;;;;;;;;8.66;77.07;95874.44;5037387;28;20003;-68
2022/07/07 07:50:23;;;;;;;;;;;;;;;8.18;78.42;95877.53;5036977;28;19980;-68
2022/07/07 07:52:48;;;;;;;;;;;;;;;9.08;75.12;95857.69;5036433;28;19975;-68
2022/07/07 07:55:14;;;;;;;;;;;;;;;8.89;75.08;95876.53;5036333;28;20351;-68
2022/07/07 07:57:40;;;;;;;;;;;;;;;8.09;77.79;95866.03;5038060;28;19978;-68
2022/07/07 08:00:05;;;;;;;;;;;;;;;8.42;77.16;95870.69;5039773;28;20012;-68
2022/07/07 08:02:31;;;;;;;;;;;;;;;9.06;74.45;95861.50;5040434;28;20003;-68
2022/07/07 08:04:56;;;;;;;;;;;;;;;10.08;71.14;95864.91;5040515;28;20004;-69
2022/07/07 08:07:21;;;;;;;;;;;;;;;10.11;70.77;95856.59;5040388;28;20067;-68
2022/07/07 08:09:46;;;;;;;;;;;;;;;9.16;73.24;95866.69;5042108;28;20064;-68
2022/07/07 08:12:12;;;;;;;;;;;;;;;8.96;74.72;95864.31;5040950;28;19985;-68
2022/07/07 08:14:37;;;;;;;;;;;;;;;8.66;75.89;95861.19;5041524;28;20000;-68
2022/07/07 08:17:02;;;;;;;;;;;;;;;8.77;76.01;95858.25;5044746;28;20438;-67
2022/07/07 08:19:27;;;;;;;;;;;;;;;8.97;75.40;95859.84;5041809;28;19996;-68
2022/07/07 08:21:53;;;;;;;;;;;;;;;8.50;76.75;95877.88;5040178;28;20001;-68
2022/07/07 08:24:18;;;;;;;;;;;;;;;8.34;77.13;95876.81;5039599;28;19985;-68
2022/07/07 08:26:43;;;;;;;;;;;;;;;8.67;76.12;95892.06;5039740;28;20031;-68
2022/07/07 08:29:09;;;;;;;;;;;;;;;8.85;76.40;95888.47;5038446;28;20493;-68
2022/07/07 08:31:34;;;;;;;;;;;;;;;8.76;74.52;95888.44;5038169;28;20180;-68
2022/07/07 08:33:59;;;;;;;;;;;;;;;8.88;74.89;95886.31;5041104;28;20223;-68
2022/07/07 08:36:24;;;;;;;;;;;;;;;8.99;74.69;95874.63;5036388;28;20381;-71
2022/07/07 08:38:50;;;;;;;;;;;;;;;9.16;74.85;95885.28;5038490;28;20186;-75
2022/07/07 08:41:15;;;;;;;;;;;;;;;10.01;72.21;95885.16;5039426;28;20003;-76
2022/07/07 08:43:40;;;;;;;;;;;;;;;9.98;71.73;95892.50;5040949;28;20099;-75
2022/07/07 08:46:06;;;;;;;;;;;;;;;9.77;72.34;95882.38;5040143;28;19973;-75
2022/07/07 08:48:31;;;;;;;;;;;;;;;9.92;72.35;95892.31;5038988;28;20154;-75
2022/07/07 08:50:56;;;;;;;;;;;;;;;10.43;70.15;95901.91;5040700;28;20000;-75
2022/07/07 08:53:21;;;;;;;;;;;;;;;9.93;71.71;95889.47;5037798;28;20011;-76
2022/07/07 08:55:47;;;;;;;;;;;;;;;10.66;69.73;95890.53;5021946;28;19996;-75
2022/07/07 08:58:12;;;;;;;;;;;;;;;10.65;69.62;95888.88;5037160;28;19973;-74
2022/07/07 09:00:37;;;;;;;;;;;;;;;11.03;68.67;95885.56;5038251;28;20044;-75
2022/07/07 09:03:05;;;;;;;;;;;;;;;11.07;68.28;95885.03;5037391;28;20004;-75
2022/07/07 09:05:33;;;;;;;;;;;;;;;10.97;67.31;95898.56;5038174;28;20180;-76
2022/07/07 09:07:58;;;;;;;;;;;;;;;10.60;68.28;95903.53;5038631;28;19993;-75
2022/07/07 09:10:33;;;;;;;;;;;;;;;10.29;69.19;95890.97;5022472;28;20035;-76
2022/07/07 09:12:58;;;;;;;;;;;;;;;10.69;67.95;95906.19;5039787;28;20516;-75
2022/07/07 09:15:24;;;;;;;;;;;;;;;10.70;68.38;95892.69;5038581;28;20079;-77
2022/07/07 09:17:49;;;;;;;;;;;;;;;11.25;67.92;95890.13;5039212;28;20011;-77
2022/07/07 09:20:14;;;;;;;;;;;;;;;11.39;66.32;95893.88;5040564;28;20023;-75
2022/07/07 09:22:43;;;;;;;;;;;;;;;10.38;68.32;95896.28;5039009;28;19993;-77
2022/07/07 09:25:09;;;;;;;;;;;;;;;10.00;69.84;95916.28;5038704;28;19991;-77
2022/07/07 09:27:40;;;;;;;;;;;;;;;9.94;69.90;95920.44;5039937;28;19997;-77
2022/07/07 09:30:05;;;;;;;;;;;;;;;9.39;71.51;95927.19;5037428;28;19992;-77
2022/07/07 09:32:30;;;;;;;;;;;;;;;9.29;72.92;95933.44;5035660;28;20450;-76
2022/07/07 09:34:55;;;;;;;;;;;;;;;9.78;73.03;95941.66;5038616;28;20486;-76
2022/07/07 09:40:06;;;;;;;;;;;;;;;9.70;71.09;95953.94;5043019;28;20003;-78
2022/07/07 09:42:32;;;;;;;;;;;;;;;9.54;72.80;95944.16;5044133;28;19977;-77
2022/07/07 09:44:58;;;;;;;;;;;;;;;9.36;71.13;95954.91;5043169;28;20386;-77
2022/07/07 09:47:23;;;;;;;;;;;;;;;9.22;72.04;95955.53;5042062;28;19989;-78
2022/07/07 09:50:03;;;;;;;;;;;;;;;9.57;70.29;95967.75;5044462;28;19973;-77
2022/07/07 09:52:28;;;;;;;;;;;;;;;10.12;68.61;95969.13;5039589;28;20015;-77
2022/07/07 09:54:54;;;;;;;;;;;;;;;9.83;66.57;95968.63;5044173;28;20001;-77
2022/07/07 09:57:19;;;;;;;;;;;;;;;10.24;66.75;95970.50;5043919;28;19969;-76
2022/07/07 09:59:45;;;;;;;;;;;;;;;10.88;65.71;95976.84;5058900;28;19990;-76
2022/07/07 10:02:18;;;;;;;;;;;;;;;10.88;65.91;95972.34;5043009;28;20016;-77
2022/07/07 10:04:44;;;;;;;;;;;;;;;11.74;64.02;95980.66;5026212;28;19996;-76
2022/07/07 10:07:09;;;;;;;;;;;;;;;12.24;62.59;95985.69;5044034;28;19996;-76
2022/07/07 10:09:34;;;;;;;;;;;;;;;11.81;61.72;95989.63;5044711;28;20385;-76
2022/07/07 10:11:59;;;;;;;;;;;;;;;11.01;61.73;95994.97;5043601;28;20024;-76
2022/07/07 10:14:28;;;;;;;;;;;;;;;10.75;62.83;96012.03;5041856;28;19962;-76
2022/07/07 10:16:53;;;;;;;;;;;;;;;9.92;65.56;96012.00;5025676;28;19958;-76
2022/07/07 10:19:19;;;;;;;;;;;;;;;9.82;67.16;96005.00;5043942;28;20107;-76
2022/07/07 10:21:45;;;;;;;;;;;;;;;10.35;64.28;96017.22;5042386;28;19993;-69
2022/07/07 10:24:11;;;;;;;;;;;;;;;10.77;64.63;96020.66;5041160;28;20027;-69
2022/07/07 10:26:37;;;;;;;;;;;;;;;10.35;65.26;96028.69;5042617;28;19989;-70
2022/07/07 10:29:02;;;;;;;;;;;;;;;10.42;66.20;96020.03;5038738;28;20396;-65
2022/07/07 10:31:31;;;;;;;;;;;;;;;10.16;67.50;96031.69;5042749;28;19997;-68
2022/07/07 10:34:05;;;;;;;;;;;;;;;10.14;68.08;96026.53;5039003;28;19966;-73
2022/07/07 10:36:46;;;;;;;;;;;;;;;10.36;67.87;96032.19;5041327;28;19988;-73
2022/07/07 10:39:11;;;;;;;;;;;;;;;10.10;68.93;96026.00;5042906;28;20673;-73
2022/07/07 10:41:36;;;;;;;;;;;;;;;11.13;66.14;96038.91;5042123;28;19988;-72
2022/07/07 10:44:05;;;;;;;;;;;;;;;11.38;65.86;96038.00;5041178;28;19993;-79
2022/07/07 10:46:30;;;;;;;;;;;;;;;12.12;61.30;96039.47;5040588;28;19973;-78
2022/07/07 10:49:04;;;;;;;;;;;;;;;11.79;61.91;96050.31;5041383;28;20030;-77
2022/07/07 10:51:30;;;;;;;;;;;;;;;11.93;60.77;96031.91;5041537;28;20023;-78
2022/07/07 10:54:03;;;;;;;;;;;;;;;11.70;60.89;96030.84;5039515;28;19969;-78
2022/07/07 10:56:47;;;;;;;;;;;;;;;12.38;59.91;96048.94;5039205;28;20358;-78
2022/07/07 10:59:12;;;;;;;;;;;;;;;12.77;57.70;96040.94;5037774;28;20072;-78
2022/07/07 11:01:38;;;;;;;;;;;;;;;11.95;58.69;96053.88;5039397;28;20488;-79
2022/07/07 11:04:03;;;;;;;;;;;;;;;12.32;58.89;96052.34;5024591;28;19997;-80
2022/07/07 11:06:28;;;;;;;;;;;;;;;12.76;58.12;96044.63;5041704;28;19975;-79
2022/07/07 11:08:54;;;;;;;;;;;;;;;12.41;58.57;96056.59;5022955;28;19973;-79
2022/07/07 11:11:20;;;;;;;;;;;;;;;11.84;59.59;96047.13;5041649;28;20496;-79
2022/07/07 11:13:45;;;;;;;;;;;;;;;11.46;60.07;96050.47;5024662;28;19973;-79
2022/07/07 11:16:19;;;;;;;;;;;;;;;11.33;60.98;96062.53;5040857;28;19993;-80
2022/07/07 11:18:48;;;;;;;;;;;;;;;11.95;59.54;96057.41;5022195;28;19993;-79
2022/07/07 11:21:13;;;;;;;;;;;;;;;11.89;60.06;96066.94;5041389;28;20050;-78
2022/07/07 11:23:47;;;;;;;;;;;;;;;11.63;60.29;96065.38;5037015;28;19989;-80
2022/07/07 11:26:12;;;;;;;;;;;;;;;10.83;61.42;96078.59;5041830;28;20373;-81
2022/07/07 11:28:37;;;;;;;;;;;;;;;10.38;63.76;96074.59;5039443;28;20336;-79
2022/07/07 11:31:03;;;;;;;;;;;;;;;10.83;61.93;96075.09;5041666;28;19985;-80
2022/07/07 11:33:29;;;;;;;;;;;;;;;9.95;64.86;96083.47;5038948;28;20429;-78
2022/07/07 11:35:54;;;;;;;;;;;;;;;9.97;65.32;96094.81;5040401;28;20044;-79
2022/07/07 11:38:19;;;;;;;;;;;;;;;9.70;65.91;96091.41;5023165;28;19997;-78
2022/07/07 11:40:44;;;;;;;;;;;;;;;10.19;66.61;96093.38;5039783;28;19981;-77
2022/07/07 11:43:19;;;;;;;;;;;;;;;10.84;65.11;96090.91;5040915;28;20038;-79
2022/07/07 11:45:45;;;;;;;;;;;;;;;10.76;63.96;96088.25;5042710;28;20442;-79
2022/07/07 11:48:10;;;;;;;;;;;;;;;10.73;63.53;96089.41;5040812;28;19996;-79
2022/07/07 11:50:35;;;;;;;;;;;;;;;11.35;62.50;96087.16;5042259;28;20462;-78
2022/07/07 11:53:01;;;;;;;;;;;;;;;11.79;62.42;96092.19;5041686;28;20481;-77
2022/07/07 11:55:27;;;;;;;;;;;;;;;12.27;60.88;96092.06;5037104;28;19990;-79
2022/07/07 11:57:53;;;;;;;;;;;;;;;12.07;60.44;96099.72;5057164;28;20412;-78
2022/07/07 12:00:19;;;;;;;;;;;;;;;12.62;59.28;96095.16;5037911;28;20023;-79
2022/07/07 12:02:45;;;;;;;;;;;;;;;12.28;60.28;96091.09;5040291;28;19993;-79
2022/07/07 12:05:10;;;;;;;;;;;;;;;12.95;58.27;96080.69;5039930;28;19973;-78
2022/07/07 12:07:35;;;;;;;;;;;;;;;13.11;57.35;96090.44;5056927;28;20473;-78
2022/07/07 12:10:01;;;;;;;;;;;;;;;13.28;57.40;96092.91;5023925;28;19973;-77
2022/07/07 12:12:26;;;;;;;;;;;;;;;13.97;55.94;96100.84;5040585;28;19989;-79
2022/07/07 12:14:51;;;;;;;;;;;;;;;13.87;54.57;96091.22;5023649;28;20411;-79
2022/07/07 12:17:32;;;;;;;;;;;;;;;13.72;55.21;96106.47;5019954;28;20354;-78
2022/07/07 12:19:57;;;;;;;;;;;;;;;13.49;55.52;96110.09;5023352;28;19993;-78
2022/07/07 12:22:34;;;;;;;;;;;;;;;13.99;54.03;96117.53;5041107;28;20538;-79
2022/07/07 12:25:00;;;;;;;;;;;;;;;13.38;54.89;96111.38;5039666;28;19973;-79
2022/07/07 12:27:25;;;;;;;;;;;;;;;13.16;55.85;96112.09;5038082;28;19989;-79
2022/07/07 12:29:57;;;;;;;;;;;;;;;13.32;54.58;96126.31;5023386;28;19976;-79
2022/07/07 12:32:23;;;;;;;;;;;;;;;12.87;56.81;96119.00;5039985;28;19993;-79
2022/07/07 12:34:48;;;;;;;;;;;;;;;12.41;57.70;96127.88;5039756;28;20259;-78
2022/07/07 12:37:13;;;;;;;;;;;;;;;11.35;61.11;96134.28;5040330;28;19972;-80
2022/07/07 12:39:41;;;;;;;;;;;;;;;10.57;63.26;96145.34;5037487;28;20039;-80
2022/07/07 12:42:06;;;;;;;;;;;;;;;10.55;64.23;96137.50;5022977;28;20000;-79
2022/07/07 12:44:32;;;;;;;;;;;;;;;10.42;65.11;96145.97;5039522;28;20443;-80
2022/07/07 12:46:58;;;;;;;;;;;;;;;11.10;63.80;96148.53;5038956;28;19993;-80